sensor_id;sensor_type;location;lat;lon;timestamp;P1;durP1;ratioP1;P2;durP2;ratioP2
483;SDS011;228;48.922;12.198;2022-09-27T00:00:42;4.03;;;3.20;;
483;SDS011;228;48.922;12.198;2022-09-27T00:03:09;7.87;;;3.37;;
483;SDS011;228;48.922;12.198;2022-09-27T00:05:36;3.67;;;3.37;;
483;SDS011;228;48.922;12.198;2022-09-27T00:08:03;3.20;;;2.83;;
483;SDS011;228;48.922;12.198;2022-09-27T00:10:29;5.83;;;3.00;;
483;SDS011;228;48.922;12.198;2022-09-27T00:12:56;3.60;;;2.60;;
483;SDS011;228;48.922;12.198;2022-09-27T00:15:23;5.33;;;3.00;;
483;SDS011;228;48.922;12.198;2022-09-27T00:17:49;4.67;;;2.80;;
483;SDS011;228;48.922;12.198;2022-09-27T00:20:18;3.07;;;2.67;;
483;SDS011;228;48.922;12.198;2022-09-27T00:22:46;4.80;;;2.80;;
483;SDS011;228;48.922;12.198;2022-09-27T00:25:13;2.77;;;2.53;;
483;SDS011;228;48.922;12.198;2022-09-27T00:27:40;4.30;;;2.83;;
483;SDS011;228;48.922;12.198;2022-09-27T00:30:06;3.60;;;2.73;;
483;SDS011;228;48.922;12.198;2022-09-27T00:32:34;3.83;;;2.53;;
483;SDS011;228;48.922;12.198;2022-09-27T00:35:00;3.67;;;2.70;;
483;SDS011;228;48.922;12.198;2022-09-27T00:37:26;3.20;;;2.40;;
483;SDS011;228;48.922;12.198;2022-09-27T00:39:52;6.90;;;6.20;;
483;SDS011;228;48.922;12.198;2022-09-27T00:42:18;3.53;;;2.47;;
483;SDS011;228;48.922;12.198;2022-09-27T00:44:54;2.87;;;2.53;;
483;SDS011;228;48.922;12.198;2022-09-27T00:47:32;3.57;;;2.43;;
483;SDS011;228;48.922;12.198;2022-09-27T00:50:17;4.07;;;2.50;;
483;SDS011;228;48.922;12.198;2022-09-27T00:53:01;4.33;;;2.80;;
483;SDS011;228;48.922;12.198;2022-09-27T00:55:30;2.90;;;2.40;;
483;SDS011;228;48.922;12.198;2022-09-27T00:58:05;3.87;;;2.40;;
483;SDS011;228;48.922;12.198;2022-09-27T01:00:32;4.67;;;2.40;;
483;SDS011;228;48.922;12.198;2022-09-27T01:03:02;2.80;;;2.30;;
483;SDS011;228;48.922;12.198;2022-09-27T01:05:31;3.97;;;2.60;;
483;SDS011;228;48.922;12.198;2022-09-27T01:07:58;3.47;;;2.80;;
483;SDS011;228;48.922;12.198;2022-09-27T01:10:27;2.70;;;2.50;;
483;SDS011;228;48.922;12.198;2022-09-27T01:13:02;3.10;;;2.40;;
483;SDS011;228;48.922;12.198;2022-09-27T01:21:46;3.07;;;2.13;;
483;SDS011;228;48.922;12.198;2022-09-27T01:27:52;2.40;;;2.20;;
483;SDS011;228;48.922;12.198;2022-09-27T01:30:52;3.37;;;2.50;;
483;SDS011;228;48.922;12.198;2022-09-27T01:42:16;4.40;;;2.30;;
483;SDS011;228;48.922;12.198;2022-09-27T01:48:17;3.03;;;2.30;;
483;SDS011;228;48.922;12.198;2022-09-27T01:53:47;2.60;;;2.40;;
483;SDS011;228;48.922;12.198;2022-09-27T01:56:31;2.53;;;2.30;;
483;SDS011;228;48.922;12.198;2022-09-27T01:59:23;3.70;;;2.40;;
483;SDS011;228;48.922;12.198;2022-09-27T02:02:06;2.40;;;2.20;;
483;SDS011;228;48.922;12.198;2022-09-27T02:04:57;2.57;;;2.30;;
483;SDS011;228;48.922;12.198;2022-09-27T02:07:33;2.80;;;2.40;;
483;SDS011;228;48.922;12.198;2022-09-27T02:10:14;4.10;;;2.60;;
483;SDS011;228;48.922;12.198;2022-09-27T02:15:52;4.93;;;2.70;;
483;SDS011;228;48.922;12.198;2022-09-27T02:19:19;3.27;;;2.40;;
483;SDS011;228;48.922;12.198;2022-09-27T02:21:58;3.20;;;2.60;;
483;SDS011;228;48.922;12.198;2022-09-27T02:24:42;3.53;;;2.37;;
483;SDS011;228;48.922;12.198;2022-09-27T02:27:20;5.90;;;3.00;;
483;SDS011;228;48.922;12.198;2022-09-27T02:30:13;4.83;;;2.87;;
483;SDS011;228;48.922;12.198;2022-09-27T02:32:42;3.83;;;2.73;;
483;SDS011;228;48.922;12.198;2022-09-27T02:35:14;5.37;;;2.70;;
483;SDS011;228;48.922;12.198;2022-09-27T02:37:54;2.80;;;2.50;;
483;SDS011;228;48.922;12.198;2022-09-27T02:40:20;4.07;;;2.67;;
483;SDS011;228;48.922;12.198;2022-09-27T02:42:47;3.40;;;2.90;;
483;SDS011;228;48.922;12.198;2022-09-27T02:45:14;3.10;;;2.80;;
483;SDS011;228;48.922;12.198;2022-09-27T03:00:10;6.43;;;3.90;;
483;SDS011;228;48.922;12.198;2022-09-27T03:05:41;5.53;;;3.30;;
483;SDS011;228;48.922;12.198;2022-09-27T03:08:19;3.80;;;3.20;;
483;SDS011;228;48.922;12.198;2022-09-27T03:10:46;3.20;;;2.90;;
483;SDS011;228;48.922;12.198;2022-09-27T03:13:12;3.70;;;2.77;;
483;SDS011;228;48.922;12.198;2022-09-27T03:15:39;4.17;;;3.00;;
483;SDS011;228;48.922;12.198;2022-09-27T03:18:05;3.47;;;2.50;;
483;SDS011;228;48.922;12.198;2022-09-27T03:20:51;4.70;;;2.60;;
483;SDS011;228;48.922;12.198;2022-09-27T03:23:19;3.23;;;2.73;;
483;SDS011;228;48.922;12.198;2022-09-27T03:25:45;3.77;;;2.87;;
483;SDS011;228;48.922;12.198;2022-09-27T03:28:12;3.20;;;2.90;;
483;SDS011;228;48.922;12.198;2022-09-27T03:30:40;5.23;;;2.80;;
483;SDS011;228;48.922;12.198;2022-09-27T03:33:07;3.57;;;2.80;;
483;SDS011;228;48.922;12.198;2022-09-27T03:35:45;4.37;;;2.80;;
483;SDS011;228;48.922;12.198;2022-09-27T03:38:12;3.47;;;2.60;;
483;SDS011;228;48.922;12.198;2022-09-27T03:40:39;3.07;;;2.43;;
483;SDS011;228;48.922;12.198;2022-09-27T03:43:06;4.00;;;3.10;;
483;SDS011;228;48.922;12.198;2022-09-27T03:45:32;3.03;;;2.30;;
483;SDS011;228;48.922;12.198;2022-09-27T03:48:01;2.70;;;2.10;;
483;SDS011;228;48.922;12.198;2022-09-27T03:50:28;3.13;;;2.27;;
483;SDS011;228;48.922;12.198;2022-09-27T03:52:54;2.43;;;2.23;;
483;SDS011;228;48.922;12.198;2022-09-27T03:55:21;3.90;;;2.40;;
483;SDS011;228;48.922;12.198;2022-09-27T03:57:47;5.03;;;2.37;;
483;SDS011;228;48.922;12.198;2022-09-27T04:00:15;3.40;;;2.20;;
483;SDS011;228;48.922;12.198;2022-09-27T04:02:42;2.30;;;2.10;;
483;SDS011;228;48.922;12.198;2022-09-27T04:05:34;3.97;;;2.37;;
483;SDS011;228;48.922;12.198;2022-09-27T04:08:10;4.13;;;2.20;;
483;SDS011;228;48.922;12.198;2022-09-27T04:10:39;2.40;;;2.20;;
483;SDS011;228;48.922;12.198;2022-09-27T04:13:07;2.80;;;2.60;;
483;SDS011;228;48.922;12.198;2022-09-27T04:15:39;2.50;;;2.30;;
483;SDS011;228;48.922;12.198;2022-09-27T04:18:24;2.80;;;2.17;;
483;SDS011;228;48.922;12.198;2022-09-27T04:20:53;2.50;;;2.30;;
483;SDS011;228;48.922;12.198;2022-09-27T04:23:19;2.63;;;2.13;;
483;SDS011;228;48.922;12.198;2022-09-27T04:25:50;2.83;;;2.30;;
483;SDS011;228;48.922;12.198;2022-09-27T04:28:34;2.27;;;2.07;;
483;SDS011;228;48.922;12.198;2022-09-27T04:31:01;3.33;;;2.03;;
483;SDS011;228;48.922;12.198;2022-09-27T04:33:54;2.70;;;2.20;;
483;SDS011;228;48.922;12.198;2022-09-27T04:36:31;2.53;;;2.33;;
483;SDS011;228;48.922;12.198;2022-09-27T04:39:17;5.13;;;2.17;;
483;SDS011;228;48.922;12.198;2022-09-27T04:41:44;2.50;;;2.30;;
483;SDS011;228;48.922;12.198;2022-09-27T04:44:10;2.10;;;1.90;;
483;SDS011;228;48.922;12.198;2022-09-27T04:46:39;2.97;;;1.93;;
483;SDS011;228;48.922;12.198;2022-09-27T04:49:05;2.37;;;2.00;;
483;SDS011;228;48.922;12.198;2022-09-27T04:51:33;2.10;;;1.90;;
483;SDS011;228;48.922;12.198;2022-09-27T04:54:00;2.00;;;1.90;;
483;SDS011;228;48.922;12.198;2022-09-27T04:56:31;2.20;;;2.00;;
483;SDS011;228;48.922;12.198;2022-09-27T04:58:59;2.33;;;2.13;;
483;SDS011;228;48.922;12.198;2022-09-27T05:01:25;2.57;;;2.37;;
483;SDS011;228;48.922;12.198;2022-09-27T05:03:58;2.23;;;2.03;;
483;SDS011;228;48.922;12.198;2022-09-27T05:06:25;3.43;;;2.30;;
483;SDS011;228;48.922;12.198;2022-09-27T05:08:54;2.80;;;2.13;;
483;SDS011;228;48.922;12.198;2022-09-27T05:11:28;2.83;;;2.10;;
483;SDS011;228;48.922;12.198;2022-09-27T05:14:20;2.77;;;2.37;;
483;SDS011;228;48.922;12.198;2022-09-27T05:17:10;3.43;;;2.20;;
483;SDS011;228;48.922;12.198;2022-09-27T05:20:03;2.47;;;2.10;;
483;SDS011;228;48.922;12.198;2022-09-27T05:22:41;2.53;;;2.33;;
483;SDS011;228;48.922;12.198;2022-09-27T05:25:07;3.23;;;2.30;;
483;SDS011;228;48.922;12.198;2022-09-27T05:27:34;2.30;;;2.10;;
483;SDS011;228;48.922;12.198;2022-09-27T05:30:00;3.10;;;2.13;;
483;SDS011;228;48.922;12.198;2022-09-27T05:32:55;3.07;;;2.20;;
483;SDS011;228;48.922;12.198;2022-09-27T05:35:24;2.70;;;2.00;;
483;SDS011;228;48.922;12.198;2022-09-27T05:38:00;2.10;;;1.90;;
483;SDS011;228;48.922;12.198;2022-09-27T05:40:33;3.97;;;2.20;;
483;SDS011;228;48.922;12.198;2022-09-27T05:42:59;2.97;;;1.90;;
483;SDS011;228;48.922;12.198;2022-09-27T05:45:25;2.50;;;2.30;;
483;SDS011;228;48.922;12.198;2022-09-27T05:47:54;2.13;;;1.70;;
483;SDS011;228;48.922;12.198;2022-09-27T05:50:23;2.30;;;2.10;;
483;SDS011;228;48.922;12.198;2022-09-27T05:52:50;2.53;;;2.00;;
483;SDS011;228;48.922;12.198;2022-09-27T05:55:18;3.07;;;2.13;;
483;SDS011;228;48.922;12.198;2022-09-27T05:57:59;2.10;;;1.90;;
483;SDS011;228;48.922;12.198;2022-09-27T06:00:50;1.93;;;1.83;;
483;SDS011;228;48.922;12.198;2022-09-27T06:03:35;2.60;;;1.83;;
483;SDS011;228;48.922;12.198;2022-09-27T06:06:20;2.40;;;2.20;;
483;SDS011;228;48.922;12.198;2022-09-27T06:08:54;2.80;;;2.00;;
483;SDS011;228;48.922;12.198;2022-09-27T06:11:21;2.57;;;2.30;;
483;SDS011;228;48.922;12.198;2022-09-27T06:13:48;2.43;;;2.23;;
483;SDS011;228;48.922;12.198;2022-09-27T06:16:14;2.70;;;2.50;;
483;SDS011;228;48.922;12.198;2022-09-27T06:18:43;3.60;;;2.17;;
483;SDS011;228;48.922;12.198;2022-09-27T06:21:10;3.70;;;2.47;;
483;SDS011;228;48.922;12.198;2022-09-27T06:23:38;2.83;;;2.40;;
483;SDS011;228;48.922;12.198;2022-09-27T06:26:11;2.53;;;2.33;;
483;SDS011;228;48.922;12.198;2022-09-27T06:29:16;4.47;;;2.37;;
483;SDS011;228;48.922;12.198;2022-09-27T06:31:52;3.70;;;2.67;;
483;SDS011;228;48.922;12.198;2022-09-27T06:34:40;4.03;;;2.37;;
483;SDS011;228;48.922;12.198;2022-09-27T06:37:06;2.60;;;2.40;;
483;SDS011;228;48.922;12.198;2022-09-27T06:39:34;2.93;;;2.43;;
483;SDS011;228;48.922;12.198;2022-09-27T06:42:29;2.53;;;2.20;;
483;SDS011;228;48.922;12.198;2022-09-27T06:45:18;3.33;;;2.30;;
483;SDS011;228;48.922;12.198;2022-09-27T06:48:04;1.80;;;1.70;;
483;SDS011;228;48.922;12.198;2022-09-27T06:50:40;1.70;;;1.53;;
483;SDS011;228;48.922;12.198;2022-09-27T06:53:08;2.87;;;1.60;;
483;SDS011;228;48.922;12.198;2022-09-27T06:55:37;2.60;;;1.63;;
483;SDS011;228;48.922;12.198;2022-09-27T06:58:04;1.77;;;1.60;;
483;SDS011;228;48.922;12.198;2022-09-27T07:01:13;3.07;;;1.50;;
483;SDS011;228;48.922;12.198;2022-09-27T07:03:58;2.10;;;1.10;;
483;SDS011;228;48.922;12.198;2022-09-27T07:06:47;1.70;;;1.17;;
483;SDS011;228;48.922;12.198;2022-09-27T07:09:19;1.80;;;1.43;;
483;SDS011;228;48.922;12.198;2022-09-27T07:11:45;1.37;;;1.20;;
483;SDS011;228;48.922;12.198;2022-09-27T07:14:12;2.33;;;1.10;;
483;SDS011;228;48.922;12.198;2022-09-27T07:16:38;1.97;;;1.20;;
483;SDS011;228;48.922;12.198;2022-09-27T07:19:05;1.73;;;1.20;;
483;SDS011;228;48.922;12.198;2022-09-27T07:21:32;1.80;;;1.20;;
483;SDS011;228;48.922;12.198;2022-09-27T07:24:02;1.07;;;1.03;;
483;SDS011;228;48.922;12.198;2022-09-27T07:26:29;1.40;;;1.30;;
483;SDS011;228;48.922;12.198;2022-09-27T07:29:01;1.77;;;1.20;;
483;SDS011;228;48.922;12.198;2022-09-27T07:31:28;2.13;;;1.30;;
483;SDS011;228;48.922;12.198;2022-09-27T07:33:54;1.63;;;1.30;;
483;SDS011;228;48.922;12.198;2022-09-27T07:36:20;2.93;;;1.27;;
483;SDS011;228;48.922;12.198;2022-09-27T07:38:47;2.70;;;1.23;;
483;SDS011;228;48.922;12.198;2022-09-27T07:41:16;1.93;;;1.20;;
483;SDS011;228;48.922;12.198;2022-09-27T07:43:43;2.23;;;1.30;;
483;SDS011;228;48.922;12.198;2022-09-27T07:46:10;1.20;;;1.10;;
483;SDS011;228;48.922;12.198;2022-09-27T07:49:05;1.33;;;1.13;;
483;SDS011;228;48.922;12.198;2022-09-27T07:51:48;3.17;;;1.40;;
483;SDS011;228;48.922;12.198;2022-09-27T07:54:45;1.60;;;1.30;;
483;SDS011;228;48.922;12.198;2022-09-27T07:57:27;1.47;;;1.37;;
483;SDS011;228;48.922;12.198;2022-09-27T07:59:55;2.47;;;1.23;;
483;SDS011;228;48.922;12.198;2022-09-27T08:02:40;2.10;;;1.37;;
483;SDS011;228;48.922;12.198;2022-09-27T08:05:08;3.80;;;1.20;;
483;SDS011;228;48.922;12.198;2022-09-27T08:07:44;2.10;;;1.27;;
483;SDS011;228;48.922;12.198;2022-09-27T08:10:13;1.53;;;1.43;;
483;SDS011;228;48.922;12.198;2022-09-27T08:12:40;1.50;;;1.40;;
483;SDS011;228;48.922;12.198;2022-09-27T08:15:06;3.17;;;1.30;;
483;SDS011;228;48.922;12.198;2022-09-27T08:17:32;2.37;;;1.30;;
483;SDS011;228;48.922;12.198;2022-09-27T08:20:17;2.33;;;1.53;;
483;SDS011;228;48.922;12.198;2022-09-27T08:23:05;2.63;;;1.40;;
483;SDS011;228;48.922;12.198;2022-09-27T08:25:41;1.47;;;1.33;;
483;SDS011;228;48.922;12.198;2022-09-27T08:28:25;2.00;;;1.33;;
483;SDS011;228;48.922;12.198;2022-09-27T08:30:56;4.13;;;1.70;;
483;SDS011;228;48.922;12.198;2022-09-27T08:33:25;2.57;;;1.50;;
483;SDS011;228;48.922;12.198;2022-09-27T08:35:51;1.83;;;1.50;;
483;SDS011;228;48.922;12.198;2022-09-27T08:38:18;3.47;;;1.50;;
483;SDS011;228;48.922;12.198;2022-09-27T08:43:27;2.00;;;1.20;;
483;SDS011;228;48.922;12.198;2022-09-27T08:50:07;2.07;;;1.50;;
483;SDS011;228;48.922;12.198;2022-09-27T08:52:20;3.20;;;1.33;;
483;SDS011;228;48.922;12.198;2022-09-27T08:55:19;1.90;;;1.30;;
483;SDS011;228;48.922;12.198;2022-09-27T08:57:55;2.47;;;1.20;;
483;SDS011;228;48.922;12.198;2022-09-27T09:00:25;2.57;;;1.40;;
483;SDS011;228;48.922;12.198;2022-09-27T09:02:55;3.50;;;1.63;;
483;SDS011;228;48.922;12.198;2022-09-27T09:08:04;1.50;;;1.33;;
483;SDS011;228;48.922;12.198;2022-09-27T09:10:42;3.67;;;1.27;;
483;SDS011;228;48.922;12.198;2022-09-27T09:13:48;2.97;;;1.50;;
483;SDS011;228;48.922;12.198;2022-09-27T09:16:38;1.40;;;1.30;;
483;SDS011;228;48.922;12.198;2022-09-27T09:35:29;2.63;;;1.50;;
483;SDS011;228;48.922;12.198;2022-09-27T09:38:09;1.53;;;1.40;;
483;SDS011;228;48.922;12.198;2022-09-27T09:40:47;1.80;;;1.20;;
483;SDS011;228;48.922;12.198;2022-09-27T09:46:02;1.00;;;1.00;;
483;SDS011;228;48.922;12.198;2022-09-27T09:51:19;1.43;;;1.03;;
483;SDS011;228;48.922;12.198;2022-09-27T09:53:53;0.90;;;0.90;;
483;SDS011;228;48.922;12.198;2022-09-27T09:56:35;1.17;;;1.00;;
483;SDS011;228;48.922;12.198;2022-09-27T09:59:12;1.33;;;1.23;;
483;SDS011;228;48.922;12.198;2022-09-27T10:01:47;1.47;;;1.17;;
483;SDS011;228;48.922;12.198;2022-09-27T10:04:17;1.10;;;1.00;;
483;SDS011;228;48.922;12.198;2022-09-27T10:06:49;1.10;;;1.00;;
483;SDS011;228;48.922;12.198;2022-09-27T10:09:19;0.93;;;0.93;;
483;SDS011;228;48.922;12.198;2022-09-27T10:12:15;1.47;;;1.10;;
483;SDS011;228;48.922;12.198;2022-09-27T10:14:44;1.00;;;0.90;;
483;SDS011;228;48.922;12.198;2022-09-27T10:17:14;1.47;;;0.90;;
483;SDS011;228;48.922;12.198;2022-09-27T10:19:46;1.00;;;1.00;;
483;SDS011;228;48.922;12.198;2022-09-27T10:25:12;1.13;;;1.03;;
483;SDS011;228;48.922;12.198;2022-09-27T10:27:52;1.77;;;1.03;;
483;SDS011;228;48.922;12.198;2022-09-27T10:33:03;1.20;;;1.00;;
483;SDS011;228;48.922;12.198;2022-09-27T10:35:48;0.90;;;0.90;;
483;SDS011;228;48.922;12.198;2022-09-27T10:38:28;0.90;;;0.87;;
483;SDS011;228;48.922;12.198;2022-09-27T10:41:15;1.53;;;1.43;;
483;SDS011;228;48.922;12.198;2022-09-27T10:44:38;1.33;;;1.00;;
483;SDS011;228;48.922;12.198;2022-09-27T10:47:21;0.93;;;0.90;;
483;SDS011;228;48.922;12.198;2022-09-27T10:50:03;1.00;;;0.87;;
483;SDS011;228;48.922;12.198;2022-09-27T10:53:03;1.00;;;1.00;;
483;SDS011;228;48.922;12.198;2022-09-27T10:55:36;1.47;;;1.00;;
483;SDS011;228;48.922;12.198;2022-09-27T10:58:04;1.20;;;1.10;;
483;SDS011;228;48.922;12.198;2022-09-27T11:00:42;2.63;;;1.10;;
483;SDS011;228;48.922;12.198;2022-09-27T11:03:15;0.93;;;0.90;;
483;SDS011;228;48.922;12.198;2022-09-27T11:05:43;1.83;;;1.20;;
483;SDS011;228;48.922;12.198;2022-09-27T11:11:18;0.90;;;0.90;;
483;SDS011;228;48.922;12.198;2022-09-27T11:28:29;1.03;;;0.83;;
483;SDS011;228;48.922;12.198;2022-09-27T11:40:15;1.53;;;0.90;;
483;SDS011;228;48.922;12.198;2022-09-27T11:43:01;1.07;;;0.90;;
483;SDS011;228;48.922;12.198;2022-09-27T12:00:02;1.37;;;1.00;;
483;SDS011;228;48.922;12.198;2022-09-27T12:06:12;0.87;;;0.87;;
483;SDS011;228;48.922;12.198;2022-09-27T12:11:30;2.03;;;0.90;;
483;SDS011;228;48.922;12.198;2022-09-27T12:17:20;1.73;;;1.00;;
483;SDS011;228;48.922;12.198;2022-09-27T12:19:56;0.90;;;0.90;;
483;SDS011;228;48.922;12.198;2022-09-27T12:22:39;0.80;;;0.80;;
483;SDS011;228;48.922;12.198;2022-09-27T12:25:30;0.80;;;0.80;;
483;SDS011;228;48.922;12.198;2022-09-27T12:31:14;0.83;;;0.83;;
483;SDS011;228;48.922;12.198;2022-09-27T12:39:51;1.00;;;0.90;;
483;SDS011;228;48.922;12.198;2022-09-27T12:46:14;0.98;;;0.90;;
483;SDS011;228;48.922;12.198;2022-09-27T12:49:21;1.10;;;1.00;;
483;SDS011;228;48.922;12.198;2022-09-27T12:52:12;1.10;;;1.00;;
483;SDS011;228;48.922;12.198;2022-09-27T13:00:56;1.87;;;1.10;;
483;SDS011;228;48.922;12.198;2022-09-27T13:06:52;1.73;;;1.33;;
483;SDS011;228;48.922;12.198;2022-09-27T13:12:59;1.10;;;1.00;;
483;SDS011;228;48.922;12.198;2022-09-27T13:15:30;1.90;;;1.10;;
483;SDS011;228;48.922;12.198;2022-09-27T13:18:01;1.03;;;0.93;;
483;SDS011;228;48.922;12.198;2022-09-27T13:20:41;2.43;;;0.90;;
483;SDS011;228;48.922;12.198;2022-09-27T13:29:02;0.70;;;0.70;;
483;SDS011;228;48.922;12.198;2022-09-27T13:34:46;1.37;;;1.00;;
483;SDS011;228;48.922;12.198;2022-09-27T13:40:33;1.17;;;1.07;;
483;SDS011;228;48.922;12.198;2022-09-27T13:45:53;1.23;;;1.10;;
483;SDS011;228;48.922;12.198;2022-09-27T13:55:05;1.07;;;0.90;;
483;SDS011;228;48.922;12.198;2022-09-27T13:58:14;0.97;;;0.80;;
483;SDS011;228;48.922;12.198;2022-09-27T14:00:59;1.43;;;0.90;;
483;SDS011;228;48.922;12.198;2022-09-27T14:03:34;0.87;;;0.70;;
483;SDS011;228;48.922;12.198;2022-09-27T14:06:04;1.73;;;1.00;;
483;SDS011;228;48.922;12.198;2022-09-27T14:11:15;0.90;;;0.90;;
483;SDS011;228;48.922;12.198;2022-09-27T14:13:48;1.97;;;1.17;;
483;SDS011;228;48.922;12.198;2022-09-27T14:16:18;1.23;;;1.10;;
483;SDS011;228;48.922;12.198;2022-09-27T14:18:46;2.83;;;1.00;;
483;SDS011;228;48.922;12.198;2022-09-27T14:21:36;1.70;;;1.13;;
483;SDS011;228;48.922;12.198;2022-09-27T14:27:03;1.80;;;0.98;;
483;SDS011;228;48.922;12.198;2022-09-27T14:30:05;1.30;;;0.93;;
483;SDS011;228;48.922;12.198;2022-09-27T14:32:47;2.03;;;1.10;;
483;SDS011;228;48.922;12.198;2022-09-27T14:35:23;1.95;;;1.00;;
483;SDS011;228;48.922;12.198;2022-09-27T14:38:13;2.10;;;1.10;;
483;SDS011;228;48.922;12.198;2022-09-27T14:40:58;1.67;;;1.23;;
483;SDS011;228;48.922;12.198;2022-09-27T14:43:26;1.20;;;1.10;;
483;SDS011;228;48.922;12.198;2022-09-27T14:45:58;1.97;;;1.20;;
483;SDS011;228;48.922;12.198;2022-09-27T14:48:34;1.70;;;1.00;;
483;SDS011;228;48.922;12.198;2022-09-27T14:53:49;1.53;;;1.17;;
483;SDS011;228;48.922;12.198;2022-09-27T14:56:22;1.80;;;1.10;;
483;SDS011;228;48.922;12.198;2022-09-27T14:59:01;1.73;;;1.30;;
483;SDS011;228;48.922;12.198;2022-09-27T15:01:33;1.40;;;1.20;;
483;SDS011;228;48.922;12.198;2022-09-27T15:04:06;1.53;;;1.20;;
483;SDS011;228;48.922;12.198;2022-09-27T15:06:38;4.00;;;1.30;;
483;SDS011;228;48.922;12.198;2022-09-27T15:09:05;3.63;;;1.47;;
483;SDS011;228;48.922;12.198;2022-09-27T15:11:34;1.40;;;1.30;;
483;SDS011;228;48.922;12.198;2022-09-27T15:14:00;1.40;;;1.30;;
483;SDS011;228;48.922;12.198;2022-09-27T15:16:29;3.50;;;1.40;;
483;SDS011;228;48.922;12.198;2022-09-27T15:19:10;1.87;;;1.67;;
483;SDS011;228;48.922;12.198;2022-09-27T15:21:52;2.57;;;1.30;;
483;SDS011;228;48.922;12.198;2022-09-27T15:24:35;2.10;;;1.50;;
483;SDS011;228;48.922;12.198;2022-09-27T15:27:11;2.80;;;1.37;;
483;SDS011;228;48.922;12.198;2022-09-27T15:29:49;1.43;;;1.30;;
483;SDS011;228;48.922;12.198;2022-09-27T15:32:19;1.90;;;1.57;;
483;SDS011;228;48.922;12.198;2022-09-27T15:34:48;3.37;;;1.53;;
483;SDS011;228;48.922;12.198;2022-09-27T15:37:27;1.60;;;1.50;;
483;SDS011;228;48.922;12.198;2022-09-27T15:42:57;1.60;;;1.50;;
483;SDS011;228;48.922;12.198;2022-09-27T15:45:30;1.43;;;1.33;;
483;SDS011;228;48.922;12.198;2022-09-27T15:48:06;1.90;;;1.80;;
483;SDS011;228;48.922;12.198;2022-09-27T15:50:44;2.67;;;1.57;;
483;SDS011;228;48.922;12.198;2022-09-27T15:53:38;1.83;;;1.60;;
483;SDS011;228;48.922;12.198;2022-09-27T15:55:58;4.27;;;1.70;;
483;SDS011;228;48.922;12.198;2022-09-27T15:58:25;3.93;;;2.20;;
483;SDS011;228;48.922;12.198;2022-09-27T16:00:54;4.47;;;2.20;;
483;SDS011;228;48.922;12.198;2022-09-27T16:03:23;2.93;;;2.20;;
483;SDS011;228;48.922;12.198;2022-09-27T16:05:51;4.10;;;1.97;;
483;SDS011;228;48.922;12.198;2022-09-27T16:08:20;3.57;;;2.00;;
483;SDS011;228;48.922;12.198;2022-09-27T16:10:50;3.20;;;2.60;;
483;SDS011;228;48.922;12.198;2022-09-27T16:13:25;1.50;;;1.40;;
483;SDS011;228;48.922;12.198;2022-09-27T16:15:51;1.83;;;1.60;;
483;SDS011;228;48.922;12.198;2022-09-27T16:18:17;1.77;;;1.37;;
483;SDS011;228;48.922;12.198;2022-09-27T16:20:44;1.30;;;1.20;;
483;SDS011;228;48.922;12.198;2022-09-27T16:23:10;1.43;;;1.33;;
483;SDS011;228;48.922;12.198;2022-09-27T16:25:36;1.30;;;1.20;;
483;SDS011;228;48.922;12.198;2022-09-27T16:28:02;1.50;;;1.40;;
483;SDS011;228;48.922;12.198;2022-09-27T16:30:29;3.37;;;2.97;;
483;SDS011;228;48.922;12.198;2022-09-27T16:32:57;4.17;;;3.77;;
483;SDS011;228;48.922;12.198;2022-09-27T16:35:24;8.00;;;7.30;;
483;SDS011;228;48.922;12.198;2022-09-27T16:37:51;6.37;;;5.77;;
483;SDS011;228;48.922;12.198;2022-09-27T16:40:17;4.53;;;3.13;;
483;SDS011;228;48.922;12.198;2022-09-27T16:42:44;2.90;;;1.80;;
483;SDS011;228;48.922;12.198;2022-09-27T16:45:13;1.60;;;1.50;;
483;SDS011;228;48.922;12.198;2022-09-27T16:47:42;2.13;;;1.70;;
483;SDS011;228;48.922;12.198;2022-09-27T16:50:09;3.23;;;2.07;;
483;SDS011;228;48.922;12.198;2022-09-27T16:52:56;4.00;;;3.60;;
483;SDS011;228;48.922;12.198;2022-09-27T16:55:24;4.90;;;4.50;;
483;SDS011;228;48.922;12.198;2022-09-27T16:57:53;9.77;;;6.37;;
483;SDS011;228;48.922;12.198;2022-09-27T17:00:22;5.60;;;5.10;;
483;SDS011;228;48.922;12.198;2022-09-27T17:02:48;8.67;;;7.77;;
483;SDS011;228;48.922;12.198;2022-09-27T17:05:14;3.87;;;3.57;;
483;SDS011;228;48.922;12.198;2022-09-27T17:07:42;5.00;;;4.60;;
483;SDS011;228;48.922;12.198;2022-09-27T17:10:08;3.53;;;3.23;;
483;SDS011;228;48.922;12.198;2022-09-27T17:12:34;6.97;;;5.97;;
483;SDS011;228;48.922;12.198;2022-09-27T17:15:00;4.93;;;3.50;;
483;SDS011;228;48.922;12.198;2022-09-27T17:17:26;8.90;;;8.03;;
483;SDS011;228;48.922;12.198;2022-09-27T17:19:53;13.73;;;12.27;;
483;SDS011;228;48.922;12.198;2022-09-27T17:22:19;5.73;;;5.13;;
483;SDS011;228;48.922;12.198;2022-09-27T17:24:45;10.70;;;9.70;;
483;SDS011;228;48.922;12.198;2022-09-27T17:27:11;7.67;;;6.97;;
483;SDS011;228;48.922;12.198;2022-09-27T17:29:37;7.57;;;5.17;;
483;SDS011;228;48.922;12.198;2022-09-27T17:32:03;4.10;;;3.67;;
483;SDS011;228;48.922;12.198;2022-09-27T17:34:33;4.73;;;3.07;;
483;SDS011;228;48.922;12.198;2022-09-27T17:37:00;7.53;;;5.10;;
483;SDS011;228;48.922;12.198;2022-09-27T17:39:26;4.73;;;4.27;;
483;SDS011;228;48.922;12.198;2022-09-27T17:41:52;5.60;;;5.10;;
483;SDS011;228;48.922;12.198;2022-09-27T17:44:18;3.47;;;2.47;;
483;SDS011;228;48.922;12.198;2022-09-27T17:46:44;3.27;;;2.70;;
483;SDS011;228;48.922;12.198;2022-09-27T17:49:11;4.87;;;2.80;;
483;SDS011;228;48.922;12.198;2022-09-27T17:51:57;5.77;;;3.60;;
483;SDS011;228;48.922;12.198;2022-09-27T17:54:24;6.60;;;3.83;;
483;SDS011;228;48.922;12.198;2022-09-27T17:56:52;5.00;;;3.90;;
483;SDS011;228;48.922;12.198;2022-09-27T17:59:20;6.57;;;4.13;;
483;SDS011;228;48.922;12.198;2022-09-27T18:01:47;5.33;;;3.83;;
483;SDS011;228;48.922;12.198;2022-09-27T18:04:14;2.97;;;2.40;;
483;SDS011;228;48.922;12.198;2022-09-27T18:06:44;2.87;;;2.57;;
483;SDS011;228;48.922;12.198;2022-09-27T18:09:12;3.27;;;2.33;;
483;SDS011;228;48.922;12.198;2022-09-27T18:11:40;2.97;;;2.30;;
483;SDS011;228;48.922;12.198;2022-09-27T18:14:08;3.00;;;2.50;;
483;SDS011;228;48.922;12.198;2022-09-27T18:16:38;5.90;;;2.60;;
483;SDS011;228;48.922;12.198;2022-09-27T18:19:12;3.30;;;2.40;;
483;SDS011;228;48.922;12.198;2022-09-27T18:21:43;3.37;;;2.50;;
483;SDS011;228;48.922;12.198;2022-09-27T18:24:12;2.43;;;2.20;;
483;SDS011;228;48.922;12.198;2022-09-27T18:26:39;5.13;;;2.50;;
483;SDS011;228;48.922;12.198;2022-09-27T18:29:09;4.60;;;2.97;;
483;SDS011;228;48.922;12.198;2022-09-27T18:31:39;4.47;;;2.50;;
483;SDS011;228;48.922;12.198;2022-09-27T18:34:06;3.27;;;2.63;;
483;SDS011;228;48.922;12.198;2022-09-27T18:36:33;4.83;;;2.83;;
483;SDS011;228;48.922;12.198;2022-09-27T18:39:04;2.97;;;2.57;;
483;SDS011;228;48.922;12.198;2022-09-27T18:41:34;3.73;;;2.83;;
483;SDS011;228;48.922;12.198;2022-09-27T18:44:02;3.87;;;2.87;;
483;SDS011;228;48.922;12.198;2022-09-27T18:46:30;5.40;;;2.93;;
483;SDS011;228;48.922;12.198;2022-09-27T18:49:04;3.60;;;3.00;;
483;SDS011;228;48.922;12.198;2022-09-27T18:51:35;4.10;;;2.90;;
483;SDS011;228;48.922;12.198;2022-09-27T18:54:12;3.80;;;3.20;;
483;SDS011;228;48.922;12.198;2022-09-27T18:56:44;5.50;;;3.20;;
483;SDS011;228;48.922;12.198;2022-09-27T18:59:18;5.77;;;3.20;;
483;SDS011;228;48.922;12.198;2022-09-27T19:02:01;4.90;;;3.30;;
483;SDS011;228;48.922;12.198;2022-09-27T19:04:28;3.87;;;2.10;;
483;SDS011;228;48.922;12.198;2022-09-27T19:06:55;3.57;;;1.90;;
483;SDS011;228;48.922;12.198;2022-09-27T19:09:25;3.17;;;2.60;;
483;SDS011;228;48.922;12.198;2022-09-27T19:11:59;3.93;;;2.77;;
483;SDS011;228;48.922;12.198;2022-09-27T19:14:27;4.53;;;2.97;;
483;SDS011;228;48.922;12.198;2022-09-27T19:16:54;4.37;;;2.90;;
483;SDS011;228;48.922;12.198;2022-09-27T19:19:26;5.17;;;2.80;;